createdAt,value
2019-01-13T00:00:40.262Z,99464.48
2019-01-13T00:02:33.171Z,99468.79
2019-01-13T00:04:26.031Z,99462.72
2019-01-13T00:06:19.139Z,99459.66
2019-01-13T00:08:12.531Z,99450.72
2019-01-13T00:10:05.791Z,99453.89
2019-01-13T00:11:59.375Z,99459.22
2019-01-13T00:13:52.864Z,99451.61
2019-01-13T00:15:45.825Z,99454.22
2019-01-13T00:17:38.664Z,99443.45
2019-01-13T00:19:31.386Z,99442.97
2019-01-13T00:21:24.986Z,99448.50
2019-01-13T00:23:18.065Z,99445.41
2019-01-13T00:25:11.025Z,99444.52
2019-01-13T00:27:03.882Z,99440.98
2019-01-13T00:28:57.042Z,99443.53
2019-01-13T00:30:51.798Z,99451.30
2019-01-13T00:32:45.019Z,99451.30
2019-01-13T00:34:37.798Z,99447.41
2019-01-13T00:36:31.014Z,99452.95
2019-01-13T00:38:24.120Z,99447.33
2019-01-13T00:40:18.064Z,99448.12
2019-01-13T00:42:11.205Z,99443.36
2019-01-13T00:44:04.221Z,99442.06
2019-01-13T00:45:57.083Z,99445.90
2019-01-13T00:47:50.277Z,99446.37
2019-01-13T00:49:43.447Z,99448.12
2019-01-13T00:51:36.305Z,99442.94
2019-01-13T00:53:29.536Z,99445.97
2019-01-13T00:55:22.976Z,99441.26
2019-01-13T00:57:15.793Z,99436.45
2019-01-13T00:59:09.237Z,99429.95
2019-01-13T01:01:02.079Z,99427.71
2019-01-13T01:02:56.603Z,99423.02
2019-01-13T01:04:49.783Z,99428.16
2019-01-13T01:06:42.670Z,99425.53
2019-01-13T01:08:35.763Z,99424.18
2019-01-13T01:10:28.726Z,99429.71
2019-01-13T01:12:21.740Z,99426.18
2019-01-13T01:14:16.050Z,99433.03
2019-01-13T01:16:09.198Z,99426.02
2019-01-13T01:18:02.275Z,99434.28
2019-01-13T01:19:55.206Z,99421.69
2019-01-13T01:21:48.222Z,99425.06
2019-01-13T01:23:41.377Z,99426.34
2019-01-13T01:25:39.678Z,99420.70
2019-01-13T01:27:39.405Z,99421.59
2019-01-13T01:29:32.305Z,99422.05
2019-01-13T01:31:25.095Z,99418.63
2019-01-13T01:33:25.718Z,99421.67
2019-01-13T01:35:12.635Z,99410.45
2019-01-13T01:37:05.623Z,99414.34
2019-01-13T01:38:59.015Z,99412.16
2019-01-13T01:40:52.805Z,99410.43
2019-01-13T01:42:45.826Z,99406.12
2019-01-13T01:44:38.725Z,99411.28
2019-01-13T01:46:31.325Z,99409.55
2019-01-13T01:48:24.945Z,99415.98
2019-01-13T01:50:20.142Z,99409.48
2019-01-13T01:52:13.083Z,99412.06
2019-01-13T01:54:06.146Z,99411.63
2019-01-13T01:55:59.115Z,99416.26
2019-01-13T01:57:53.063Z,99409.77
2019-01-13T01:59:46.646Z,99411.46
2019-01-13T02:01:39.966Z,99408.42
2019-01-13T02:03:33.565Z,99398.48
2019-01-13T02:05:26.937Z,99400.16
2019-01-13T02:07:20.407Z,99401.88
2019-01-13T02:09:14.007Z,99400.64
2019-01-13T02:11:08.957Z,99394.97
2019-01-13T02:13:02.760Z,99397.63
2019-01-13T02:14:55.634Z,99404.14
2019-01-13T02:16:48.806Z,99399.39
2019-01-13T02:18:41.746Z,99395.97
2019-01-13T02:20:35.026Z,99389.86
2019-01-13T02:22:28.285Z,99380.33
2019-01-13T02:24:21.392Z,99383.78
2019-01-13T02:26:14.410Z,99380.75
2019-01-13T02:28:07.357Z,99373.40
2019-01-13T02:30:00.294Z,99376.86
2019-01-13T02:31:53.793Z,99375.55
2019-01-13T02:33:46.564Z,99372.60
2019-01-13T02:35:39.530Z,99368.73
2019-01-13T02:37:32.530Z,99371.91
2019-01-13T02:39:26.433Z,99365.95
2019-01-13T02:41:19.285Z,99377.23
2019-01-13T02:43:12.271Z,99369.42
2019-01-13T02:45:06.056Z,99362.95
2019-01-13T02:46:59.056Z,99360.83
2019-01-13T02:48:52.142Z,99356.08
2019-01-13T02:50:45.113Z,99364.73
2019-01-13T02:52:38.133Z,99356.08
2019-01-13T02:54:31.012Z,99356.47
2019-01-13T02:56:24.415Z,99356.42
2019-01-13T02:58:17.471Z,99359.84
2019-01-13T03:00:18.826Z,99355.48
2019-01-13T03:02:13.107Z,99364.05
2019-01-13T03:04:06.863Z,99352.30
2019-01-13T03:05:59.929Z,99353.13
2019-01-13T03:07:54.689Z,99352.61
2019-01-13T03:09:50.239Z,99349.53
2019-01-13T03:11:43.313Z,99348.72
2019-01-13T03:13:37.999Z,99349.53
2019-01-13T03:15:31.108Z,99343.11
2019-01-13T03:17:24.689Z,99343.11
2019-01-13T03:19:22.489Z,99342.28
2019-01-13T03:21:15.848Z,99346.56
2019-01-13T03:23:11.604Z,99344.84
2019-01-13T03:25:06.499Z,99341.39
2019-01-13T03:27:00.052Z,99340.07
2019-01-13T03:28:54.252Z,99338.80
2019-01-13T03:30:49.053Z,99341.39
2019-01-13T03:32:42.932Z,99343.63
2019-01-13T03:34:36.682Z,99341.48
2019-01-13T03:36:30.441Z,99337.08
2019-01-13T03:38:34.245Z,99337.08
2019-01-13T03:40:28.336Z,99338.80
2019-01-13T03:42:21.617Z,99335.77
2019-01-13T03:44:14.763Z,99330.13
2019-01-13T03:46:07.949Z,99337.03
2019-01-13T03:48:01.108Z,99336.09
2019-01-13T03:49:54.868Z,99320.52
2019-01-13T03:51:48.340Z,99335.65
2019-01-13T03:53:41.709Z,99326.95
2019-01-13T03:55:35.508Z,99333.88
2019-01-13T03:57:28.709Z,99327.80
2019-01-13T03:59:22.007Z,99329.08
2019-01-13T04:01:18.610Z,99328.24
2019-01-13T04:03:09.968Z,99326.92
2019-01-13T04:05:03.147Z,99322.14
2019-01-13T04:06:56.263Z,99327.69
2019-01-13T04:08:49.400Z,99325.09
2019-01-13T04:10:42.220Z,99317.75
2019-01-13T04:12:35.130Z,99313.85
2019-01-13T04:14:29.620Z,99312.11
2019-01-13T04:16:23.446Z,99318.16
2019-01-13T04:18:16.807Z,99318.16
2019-01-13T04:20:10.128Z,99317.69
2019-01-13T04:22:03.287Z,99315.56
2019-01-13T04:23:56.162Z,99315.06
2019-01-13T04:25:49.072Z,99312.88
2019-01-13T04:27:42.122Z,99308.92
2019-01-13T04:29:35.133Z,99311.94
2019-01-13T04:31:28.212Z,99310.99
2019-01-13T04:33:20.896Z,99309.22
2019-01-13T04:35:13.779Z,99298.77
2019-01-13T04:37:06.909Z,99302.67
2019-01-13T04:39:00.155Z,99289.66
2019-01-13T04:40:53.274Z,99288.71
2019-01-13T04:42:46.255Z,99297.36
2019-01-13T04:44:39.098Z,99292.55
2019-01-13T04:46:31.868Z,99295.11
2019-01-13T04:48:25.280Z,99290.36
2019-01-13T04:50:18.169Z,99280.03
2019-01-13T04:52:11.206Z,99292.95
2019-01-13T04:54:06.007Z,99285.14
2019-01-13T04:55:59.250Z,99287.73
2019-01-13T04:57:52.283Z,99289.41
2019-01-13T04:59:45.125Z,99288.09
2019-01-13T05:01:38.095Z,99283.75
2019-01-13T05:03:31.045Z,99282.80
2019-01-13T05:05:24.285Z,99279.70
2019-01-13T05:07:17.362Z,99275.87
2019-01-13T05:09:11.681Z,99279.26
2019-01-13T05:11:08.625Z,99276.72
2019-01-13T05:13:02.124Z,99279.70
2019-01-13T05:14:55.612Z,99278.40
2019-01-13T05:16:48.723Z,99272.86
2019-01-13T05:18:42.064Z,99271.55
2019-01-13T05:20:35.346Z,99268.61
2019-01-13T05:22:28.959Z,99266.01
2019-01-13T05:24:22.021Z,99268.61
2019-01-13T05:26:27.299Z,99269.84
2019-01-13T05:28:20.658Z,99263.26
2019-01-13T05:30:20.029Z,99265.41
2019-01-13T05:32:13.169Z,99267.16
2019-01-13T05:34:06.179Z,99263.26
2019-01-13T05:35:59.461Z,99266.69
2019-01-13T05:37:56.899Z,99265.73
2019-01-13T05:39:50.264Z,99262.34
2019-01-13T05:41:43.373Z,99261.42
2019-01-13T05:43:36.884Z,99264.41
2019-01-13T05:45:30.284Z,99248.41
2019-01-13T05:47:24.942Z,99252.71
2019-01-13T05:49:18.168Z,99250.94
2019-01-13T05:51:10.968Z,99248.78
2019-01-13T05:53:04.469Z,99252.80
2019-01-13T05:54:57.412Z,99250.92
2019-01-13T05:56:51.451Z,99247.40
2019-01-13T05:58:44.983Z,99248.42
2019-01-13T06:00:42.954Z,99246.34
2019-01-13T06:02:36.322Z,99242.88
2019-01-13T06:04:29.312Z,99246.22
2019-01-13T06:06:23.135Z,99247.86
2019-01-13T06:08:16.046Z,99247.73
2019-01-13T06:10:10.854Z,99246.17
2019-01-13T06:12:03.923Z,99249.59
2019-01-13T06:13:56.826Z,99248.80
2019-01-13T06:15:49.759Z,99239.70
2019-01-13T06:17:42.878Z,99243.20
2019-01-13T06:19:35.973Z,99245.97
2019-01-13T06:21:28.893Z,99249.00
2019-01-13T06:23:21.833Z,99245.09
2019-01-13T06:25:14.694Z,99248.03
2019-01-13T06:27:09.296Z,99245.22
2019-01-13T06:29:02.343Z,99246.15
2019-01-13T06:30:55.271Z,99247.34
2019-01-13T06:32:48.028Z,99252.66
2019-01-13T06:34:40.889Z,99247.37
2019-01-13T06:36:33.998Z,99258.94
2019-01-13T06:38:27.088Z,99259.86
2019-01-13T06:40:22.468Z,99259.95
2019-01-13T06:42:15.358Z,99262.44
2019-01-13T06:44:08.447Z,99264.75
2019-01-13T06:46:01.724Z,99256.30
2019-01-13T06:47:55.204Z,99266.94
2019-01-13T06:49:48.091Z,99258.28
2019-01-13T06:51:40.962Z,99260.22
2019-01-13T06:53:34.132Z,99258.98
2019-01-13T06:55:30.172Z,99255.84
2019-01-13T06:57:22.991Z,99259.13
2019-01-13T06:59:15.921Z,99253.14
2019-01-13T07:01:08.838Z,99259.65
2019-01-13T07:03:02.222Z,99250.79
2019-01-13T07:04:56.819Z,99256.40
2019-01-13T07:06:51.661Z,99250.48
2019-01-13T07:08:44.830Z,99259.79
2019-01-13T07:10:37.961Z,99261.33
2019-01-13T07:12:31.481Z,99264.64
2019-01-13T07:14:24.441Z,99258.28
2019-01-13T07:16:17.142Z,99256.23
2019-01-13T07:18:10.022Z,99259.45
2019-01-13T07:20:03.211Z,99255.84
2019-01-13T07:21:57.752Z,99260.66
2019-01-13T07:23:51.091Z,99258.58
2019-01-13T07:25:44.603Z,99258.64
2019-01-13T07:27:37.632Z,99254.45
2019-01-13T07:29:30.541Z,99251.45
2019-01-13T07:31:23.726Z,99254.13
2019-01-13T07:33:16.612Z,99249.77
2019-01-13T07:35:09.642Z,99249.16
2019-01-13T07:37:02.922Z,99245.69
2019-01-13T07:38:55.982Z,99246.48
2019-01-13T07:40:48.753Z,99246.37
2019-01-13T07:42:41.711Z,99238.87
2019-01-13T07:44:34.611Z,99243.30
2019-01-13T07:46:27.341Z,99243.33
2019-01-13T07:48:20.289Z,99241.64
2019-01-13T07:50:15.935Z,99235.59
2019-01-13T07:52:09.675Z,99235.59
2019-01-13T07:54:02.762Z,99235.08
2019-01-13T07:55:55.634Z,99232.00
2019-01-13T07:57:49.212Z,99226.39
2019-01-13T07:59:42.280Z,99224.20
2019-01-13T08:01:35.382Z,99216.41
2019-01-13T08:03:28.511Z,99215.10
2019-01-13T08:05:22.192Z,99212.84
2019-01-13T08:07:14.992Z,99208.95
2019-01-13T08:09:10.455Z,99211.92
2019-01-13T08:11:03.634Z,99206.69
2019-01-13T08:12:56.552Z,99205.73
2019-01-13T08:14:49.382Z,99204.42
2019-01-13T08:16:44.512Z,99204.05
2019-01-13T08:18:37.449Z,99206.24
2019-01-13T08:20:37.332Z,99203.34
2019-01-13T08:22:30.682Z,99200.33
2019-01-13T08:24:23.925Z,99200.33
2019-01-13T08:26:16.664Z,99200.30
2019-01-13T08:28:09.414Z,99200.80
2019-01-13T08:30:02.503Z,99203.03
2019-01-13T08:31:56.465Z,99194.85
2019-01-13T08:33:49.746Z,99203.09
2019-01-13T08:35:42.495Z,99194.89
2019-01-13T08:37:35.562Z,99189.69
2019-01-13T08:39:28.514Z,99185.69
2019-01-13T08:41:21.392Z,99180.72
2019-01-13T08:43:14.202Z,99180.58
2019-01-13T08:45:08.279Z,99177.66
2019-01-13T08:47:01.053Z,99175.67
2019-01-13T08:48:54.000Z,99174.45
2019-01-13T08:50:46.932Z,99161.34
2019-01-13T08:52:40.379Z,99161.34
2019-01-13T08:54:33.393Z,99160.44
2019-01-13T08:56:27.187Z,99163.75
2019-01-13T08:58:19.892Z,99156.13
2019-01-13T09:00:24.961Z,99150.89
2019-01-13T09:02:18.233Z,99153.87
2019-01-13T09:04:11.444Z,99147.77
2019-01-13T09:06:05.020Z,99149.81
2019-01-13T09:07:57.824Z,99148.17
2019-01-13T09:09:50.913Z,99144.68
2019-01-13T09:11:45.432Z,99142.01
2019-01-13T09:13:38.512Z,99138.63
2019-01-13T09:15:31.394Z,99141.23
2019-01-13T09:17:24.473Z,99134.42
2019-01-13T09:19:17.207Z,99135.77
2019-01-13T09:21:10.492Z,99131.42
2019-01-13T09:23:04.600Z,99126.21
2019-01-13T09:24:57.522Z,99125.25
2019-01-13T09:26:53.460Z,99123.57
2019-01-13T09:28:46.362Z,99127.59
2019-01-13T09:30:39.607Z,99123.84
2019-01-13T09:32:39.226Z,99120.27
2019-01-13T09:34:27.422Z,99114.58
2019-01-13T09:36:20.322Z,99112.09
2019-01-13T09:38:13.262Z,99111.34
2019-01-13T09:40:07.182Z,99108.30
2019-01-13T09:42:00.212Z,99104.11
2019-01-13T09:43:53.285Z,99097.94
2019-01-13T09:45:46.273Z,99096.63
2019-01-13T09:47:39.333Z,99089.72
2019-01-13T09:49:35.182Z,99088.05
2019-01-13T09:51:29.560Z,99090.24
2019-01-13T09:53:22.482Z,99087.01
2019-01-13T09:55:17.095Z,99081.31
2019-01-13T09:57:09.973Z,99081.98
2019-01-13T09:59:02.916Z,99068.36
2019-01-13T10:00:55.933Z,99071.30
2019-01-13T10:02:49.591Z,99064.39
2019-01-13T10:04:42.342Z,99065.13
2019-01-13T10:06:35.272Z,99060.11
2019-01-13T10:08:27.922Z,99060.48
2019-01-13T10:10:20.939Z,99049.79
2019-01-13T10:12:14.984Z,99048.45
2019-01-13T10:14:07.912Z,99050.53
2019-01-13T10:16:00.942Z,99052.52
2019-01-13T10:17:54.302Z,99045.61
2019-01-13T10:19:47.084Z,99047.31
2019-01-13T10:21:40.023Z,99033.00
2019-01-13T10:23:33.243Z,99029.43
2019-01-13T10:25:26.205Z,99030.61
2019-01-13T10:27:19.480Z,99020.31
2019-01-13T10:29:12.182Z,99018.05
2019-01-13T10:31:05.229Z,99020.53
2019-01-13T10:32:58.205Z,99010.92
2019-01-13T10:34:51.083Z,99009.63
2019-01-13T10:36:44.050Z,99006.49
2019-01-13T10:38:38.183Z,98997.18
2019-01-13T10:40:32.622Z,98997.23
2019-01-13T10:42:26.002Z,98988.11
2019-01-13T10:44:19.172Z,98987.17
2019-01-13T10:46:12.520Z,98986.08
2019-01-13T10:48:05.673Z,98978.59
2019-01-13T10:49:58.743Z,98964.87
2019-01-13T10:51:51.848Z,98970.77
2019-01-13T10:53:45.084Z,98968.09
2019-01-13T10:55:38.502Z,98962.95
2019-01-13T10:57:31.817Z,98961.07
2019-01-13T10:59:24.733Z,98960.12
2019-01-13T11:01:18.280Z,98949.13
2019-01-13T11:03:12.294Z,98952.95
2019-01-13T11:05:06.363Z,98945.59
2019-01-13T11:06:59.812Z,98943.39
2019-01-13T11:08:52.967Z,98941.46
2019-01-13T11:10:46.253Z,98933.37
2019-01-13T11:12:39.447Z,98928.09
2019-01-13T11:14:33.489Z,98923.73
2019-01-13T11:16:28.032Z,98910.70
2019-01-13T11:18:21.277Z,98900.88
2019-01-13T11:20:27.000Z,98898.27
2019-01-13T11:22:21.259Z,98897.37
2019-01-13T11:24:14.334Z,98901.09
2019-01-13T11:26:07.811Z,98894.53
2019-01-13T11:28:00.828Z,98889.33
2019-01-13T11:29:53.783Z,98880.70
2019-01-13T11:31:47.203Z,98867.81
2019-01-13T11:33:40.176Z,98875.22
2019-01-13T11:35:33.912Z,98876.52
2019-01-13T11:37:27.243Z,98869.04
2019-01-13T11:39:22.100Z,98864.99
2019-01-13T11:41:15.773Z,98862.66
2019-01-13T11:43:08.773Z,98861.23
2019-01-13T11:45:02.034Z,98850.87
2019-01-13T11:46:55.420Z,98847.51
2019-01-13T11:48:48.446Z,98843.56
2019-01-13T11:50:41.664Z,98845.89
2019-01-13T11:52:35.993Z,98837.16
2019-01-13T11:54:29.021Z,98831.67
2019-01-13T11:56:22.560Z,98821.45
2019-01-13T11:58:15.885Z,98813.50
2019-01-13T12:00:23.993Z,98812.41
2019-01-13T12:02:17.962Z,98800.70
2019-01-13T12:04:11.393Z,98796.13
2019-01-13T12:06:05.060Z,98792.17
2019-01-13T12:07:59.103Z,98790.20
2019-01-13T12:09:52.726Z,98789.30
2019-01-13T12:11:45.953Z,98790.15
2019-01-13T12:13:40.202Z,98775.55
2019-01-13T12:15:33.973Z,98774.11
2019-01-13T12:17:27.580Z,98774.17
2019-01-13T12:19:21.103Z,98771.96
2019-01-13T12:21:14.743Z,98769.30
2019-01-13T12:23:08.444Z,98762.94
2019-01-13T12:25:17.205Z,98771.65
2019-01-13T12:27:11.033Z,98762.95
2019-01-13T12:29:04.925Z,98766.64
2019-01-13T12:30:58.850Z,98762.11
2019-01-13T12:32:52.382Z,98758.38
2019-01-13T12:34:47.207Z,98751.61
2019-01-13T12:36:41.502Z,98749.41
2019-01-13T12:38:35.113Z,98741.20
2019-01-13T12:40:30.643Z,98736.66
2019-01-13T12:42:25.433Z,98730.78
2019-01-13T12:44:19.383Z,98724.26
2019-01-13T12:46:13.231Z,98716.59
2019-01-13T12:48:07.104Z,98717.84
2019-01-13T12:50:01.176Z,98717.52
2019-01-13T12:51:55.492Z,98711.52
2019-01-13T12:53:49.053Z,98703.31
2019-01-13T12:55:42.753Z,98698.19
2019-01-13T12:57:36.703Z,98698.72
2019-01-13T12:59:30.583Z,98694.47
2019-01-13T13:01:24.334Z,98695.06
2019-01-13T13:03:18.131Z,98682.64
2019-01-13T13:05:13.273Z,98680.52
2019-01-13T13:07:07.052Z,98677.52
2019-01-13T13:09:00.603Z,98671.15
2019-01-13T13:10:57.112Z,98662.09
2019-01-13T13:12:50.964Z,98661.38
2019-01-13T13:14:44.722Z,98652.36
2019-01-13T13:16:38.622Z,98652.86
2019-01-13T13:18:32.249Z,98646.75
2019-01-13T13:20:26.049Z,98644.60
2019-01-13T13:22:21.240Z,98640.33
2019-01-13T13:24:16.854Z,98634.20
2019-01-13T13:26:10.969Z,98634.85
2019-01-13T13:28:04.817Z,98627.89
2019-01-13T13:30:02.282Z,98623.85
2019-01-13T13:31:56.453Z,98615.19
2019-01-13T13:33:50.892Z,98613.05
2019-01-13T13:35:44.462Z,98606.00
2019-01-13T13:37:38.184Z,98602.18
2019-01-13T13:39:32.923Z,98605.29
2019-01-13T13:41:26.859Z,98594.06
2019-01-13T13:43:20.891Z,98591.83
2019-01-13T13:45:14.422Z,98581.11
2019-01-13T13:47:08.463Z,98576.95
2019-01-13T13:49:02.135Z,98568.37
2019-01-13T13:50:56.942Z,98565.47
2019-01-13T13:52:50.713Z,98560.63
2019-01-13T13:54:47.202Z,98552.37
2019-01-13T13:56:41.049Z,98549.31
2019-01-13T13:58:35.823Z,98546.27
2019-01-13T14:00:37.382Z,98540.61
2019-01-13T14:02:31.412Z,98535.85
2019-01-13T14:04:25.532Z,98529.55
2019-01-13T14:06:19.073Z,98526.58
2019-01-13T14:08:14.512Z,98522.42
2019-01-13T14:10:13.632Z,98520.33
2019-01-13T14:12:08.184Z,98512.22
2019-01-13T14:14:02.082Z,98503.65
2019-01-13T14:15:55.782Z,98498.84
2019-01-13T14:17:49.462Z,98501.11
2019-01-13T14:19:43.692Z,98505.01
2019-01-13T14:21:37.369Z,98488.19
2019-01-13T14:23:31.842Z,98483.98
2019-01-13T14:25:25.719Z,98485.19
2019-01-13T14:27:20.790Z,98478.28
2019-01-13T14:29:14.404Z,98471.03
2019-01-13T14:31:08.120Z,98466.67
2019-01-13T14:33:02.144Z,98461.07
2019-01-13T14:34:57.132Z,98456.86
2019-01-13T14:36:51.152Z,98450.42
2019-01-13T14:38:44.775Z,98448.66
2019-01-13T14:40:38.661Z,98446.77
2019-01-13T14:42:32.645Z,98434.30
2019-01-13T14:44:26.548Z,98433.91
2019-01-13T14:46:20.383Z,98430.86
2019-01-13T14:48:14.097Z,98433.00
2019-01-13T14:50:08.824Z,98423.59
2019-01-13T14:52:05.829Z,98418.84
2019-01-13T14:53:59.859Z,98413.64
2019-01-13T14:55:53.760Z,98411.49
2019-01-13T14:57:47.562Z,98403.60
2019-01-13T14:59:41.562Z,98400.95
2019-01-13T15:01:35.911Z,98394.39
2019-01-13T15:03:29.730Z,98392.84
2019-01-13T15:05:23.792Z,98385.40
2019-01-13T15:07:18.262Z,98385.80
2019-01-13T15:09:12.611Z,98373.24
2019-01-13T15:11:06.582Z,98371.48
2019-01-13T15:13:00.361Z,98368.89
2019-01-13T15:14:54.262Z,98367.53
2019-01-13T15:16:48.283Z,98361.03
2019-01-13T15:18:42.761Z,98353.23
2019-01-13T15:20:36.966Z,98349.33
2019-01-13T15:22:30.923Z,98343.33
2019-01-13T15:24:25.082Z,98344.63
2019-01-13T15:26:18.982Z,98334.23
2019-01-13T15:28:13.132Z,98330.33
2019-01-13T15:30:12.763Z,98327.73
2019-01-13T15:32:06.659Z,98324.28
2019-01-13T15:34:06.995Z,98313.06
2019-01-13T15:35:56.418Z,98308.62
2019-01-13T15:37:50.363Z,98307.71
2019-01-13T15:39:44.481Z,98295.22
2019-01-13T15:41:38.111Z,98297.30
2019-01-13T15:43:32.032Z,98288.11
2019-01-13T15:45:27.462Z,98278.64
2019-01-13T15:47:21.490Z,98278.49
2019-01-13T15:49:15.459Z,98266.09
2019-01-13T15:51:09.282Z,98259.59
2019-01-13T15:53:03.852Z,98253.55
2019-01-13T15:55:00.833Z,98256.20
2019-01-13T15:56:55.373Z,98244.50
2019-01-13T15:58:49.322Z,98242.84
2019-01-13T16:00:43.440Z,98236.41
2019-01-13T16:02:37.212Z,98233.64
2019-01-13T16:04:31.354Z,98233.20
2019-01-13T16:06:25.329Z,98223.80
2019-01-13T16:08:19.311Z,98215.20
2019-01-13T16:10:17.032Z,98210.40
2019-01-13T16:12:11.254Z,98211.30
2019-01-13T16:14:05.520Z,98204.90
2019-01-13T16:15:59.622Z,98204.05
2019-01-13T16:17:53.783Z,98196.41
2019-01-13T16:19:47.931Z,98199.46
2019-01-13T16:21:43.080Z,98187.36
2019-01-13T16:23:37.962Z,98179.95
2019-01-13T16:25:31.991Z,98180.87
2019-01-13T16:27:25.682Z,98166.95
2019-01-13T16:29:20.062Z,98168.65
2019-01-13T16:31:13.901Z,98156.55
2019-01-13T16:33:07.751Z,98153.20
2019-01-13T16:35:02.032Z,98152.42
2019-01-13T16:36:56.323Z,98152.81
2019-01-13T16:38:50.383Z,98143.78
2019-01-13T16:40:45.430Z,98133.92
2019-01-13T16:42:39.939Z,98135.77
2019-01-13T16:44:34.222Z,98119.39
2019-01-13T16:46:28.992Z,98114.28
2019-01-13T16:48:23.222Z,98112.59
2019-01-13T16:50:26.022Z,98106.64
2019-01-13T16:52:20.019Z,98098.39
2019-01-13T16:54:13.838Z,98091.95
2019-01-13T16:56:07.767Z,98086.01
2019-01-13T16:58:01.588Z,98086.37
2019-01-13T16:59:57.085Z,98073.02
2019-01-13T17:01:51.297Z,98079.97
2019-01-13T17:03:46.224Z,98065.89
2019-01-13T17:05:43.032Z,98057.41
2019-01-13T17:07:36.901Z,98051.30
2019-01-13T17:09:30.850Z,98052.20
2019-01-13T17:11:24.783Z,98044.80
2019-01-13T17:13:18.871Z,98043.41
2019-01-13T17:15:14.764Z,98030.12
2019-01-13T17:17:08.300Z,98020.17
2019-01-13T17:19:02.411Z,98018.97
2019-01-13T17:20:56.320Z,98010.40
2019-01-13T17:22:50.185Z,98006.05
2019-01-13T17:24:44.257Z,98001.69
2019-01-13T17:26:38.321Z,98006.14
2019-01-13T17:28:32.420Z,97994.34
2019-01-13T17:30:28.738Z,97998.64
2019-01-13T17:32:23.067Z,97994.90
2019-01-13T17:34:18.460Z,97994.90
2019-01-13T17:36:12.251Z,98002.60
2019-01-13T17:38:06.891Z,97988.30
2019-01-13T17:40:01.091Z,97971.51
2019-01-13T17:41:54.984Z,97966.37
2019-01-13T17:43:49.504Z,97961.28
2019-01-13T17:45:44.703Z,97952.19
2019-01-13T17:47:38.538Z,97962.48
2019-01-13T17:49:32.753Z,97945.13
2019-01-13T17:51:27.918Z,97949.26
2019-01-13T17:53:21.894Z,97954.84
2019-01-13T17:55:21.848Z,97956.14
2019-01-13T17:57:15.965Z,97940.61
2019-01-13T17:59:10.368Z,97945.75
2019-01-13T18:01:30.834Z,97937.01
2019-01-13T18:03:39.458Z,97935.25
2019-01-13T18:05:33.326Z,97936.20
2019-01-13T18:07:28.825Z,97940.09
2019-01-13T18:09:22.964Z,97927.16
2019-01-13T18:11:17.638Z,97921.06
2019-01-13T18:13:11.939Z,97920.60
2019-01-13T18:15:06.349Z,97917.16
2019-01-13T18:17:06.381Z,97916.70
2019-01-13T18:18:56.307Z,97912.70
2019-01-13T18:20:50.571Z,97911.34
2019-01-13T18:22:44.461Z,97913.45
2019-01-13T18:24:38.845Z,97901.69
2019-01-13T18:26:33.022Z,97900.32
2019-01-13T18:28:26.942Z,97898.02
2019-01-13T18:30:27.228Z,97899.59
2019-01-13T18:32:22.027Z,97892.19
2019-01-13T18:34:17.630Z,97886.43
2019-01-13T18:36:13.421Z,97890.55
2019-01-13T18:38:08.541Z,97882.30
2019-01-13T18:40:02.990Z,97873.87
2019-01-13T18:41:56.868Z,97871.62
2019-01-13T18:43:50.888Z,97857.16
2019-01-13T18:45:45.646Z,97855.85
2019-01-13T18:47:39.766Z,97844.92
2019-01-13T18:49:33.768Z,97840.08
2019-01-13T18:51:27.740Z,97841.87
2019-01-13T18:53:21.765Z,97843.98
2019-01-13T18:55:16.026Z,97837.48
2019-01-13T18:57:09.988Z,97828.77
2019-01-13T18:59:03.759Z,97830.45
2019-01-13T19:00:57.867Z,97820.44
2019-01-13T19:02:51.808Z,97818.30
2019-01-13T19:04:45.958Z,97817.84
2019-01-13T19:06:39.878Z,97807.79
2019-01-13T19:08:34.306Z,97809.47
2019-01-13T19:10:50.935Z,97807.72
2019-01-13T19:12:44.745Z,97806.42
2019-01-13T19:14:58.698Z,97800.66
2019-01-13T19:17:04.388Z,97787.58
2019-01-13T19:18:58.341Z,97782.84
2019-01-13T19:20:52.139Z,97777.91
2019-01-13T19:22:50.736Z,97779.50
2019-01-13T19:24:45.270Z,97773.95
2019-01-13T19:26:39.358Z,97771.62
2019-01-13T19:28:33.219Z,97771.06
2019-01-13T19:30:27.004Z,97775.42
2019-01-13T19:32:20.885Z,97761.88
2019-01-13T19:34:16.107Z,97764.77
2019-01-13T19:36:11.728Z,97762.90
2019-01-13T19:38:06.667Z,97752.70
2019-01-13T19:40:00.755Z,97754.73
2019-01-13T19:42:01.575Z,97741.58
2019-01-13T19:43:57.398Z,97751.41
2019-01-13T19:45:51.484Z,97739.14
2019-01-13T19:47:46.585Z,97735.24
2019-01-13T19:49:40.858Z,97738.23
2019-01-13T19:51:35.278Z,97729.97
2019-01-13T19:53:28.994Z,97731.47
2019-01-13T19:55:25.126Z,97727.00
2019-01-13T19:57:19.897Z,97716.52
2019-01-13T19:59:14.995Z,97716.86
2019-01-13T20:01:09.986Z,97721.53
2019-01-13T20:03:05.646Z,97708.88
2019-01-13T20:04:59.368Z,97708.23
2019-01-13T20:06:53.686Z,97706.84
2019-01-13T20:08:48.088Z,97699.39
2019-01-13T20:10:42.187Z,97692.08
2019-01-13T20:12:36.269Z,97695.87
2019-01-13T20:14:30.448Z,97694.11
2019-01-13T20:16:24.578Z,97680.18
2019-01-13T20:18:18.515Z,97671.91
2019-01-13T20:20:14.237Z,97670.95
2019-01-13T20:22:08.298Z,97666.21
2019-01-13T20:24:02.791Z,97656.64
2019-01-13T20:25:57.159Z,97650.59
2019-01-13T20:27:52.862Z,97658.89
2019-01-13T20:29:46.583Z,97652.73
2019-01-13T20:31:40.754Z,97653.96
2019-01-13T20:33:34.798Z,97640.95
2019-01-13T20:35:31.008Z,97638.70
2019-01-13T20:37:25.309Z,97631.66
2019-01-13T20:39:25.006Z,97631.66
2019-01-13T20:41:19.410Z,97632.38
2019-01-13T20:43:13.302Z,97632.76
2019-01-13T20:45:09.638Z,97634.33
2019-01-13T20:47:04.538Z,97618.63
2019-01-13T20:48:58.355Z,97618.52
2019-01-13T20:50:52.365Z,97611.09
2019-01-13T20:52:46.785Z,97609.33
2019-01-13T20:54:40.958Z,97602.44
2019-01-13T20:56:35.274Z,97603.28
2019-01-13T20:58:29.145Z,97603.66
2019-01-13T21:00:25.595Z,97601.41
2019-01-13T21:02:19.804Z,97590.99
2019-01-13T21:04:13.707Z,97590.45
2019-01-13T21:06:07.947Z,97593.89
2019-01-13T21:08:02.102Z,97590.34
2019-01-13T21:09:55.936Z,97588.20
2019-01-13T21:11:49.858Z,97585.13
2019-01-13T21:13:43.595Z,97580.39
2019-01-13T21:15:38.931Z,97575.94
2019-01-13T21:17:32.789Z,97573.50
2019-01-13T21:19:26.727Z,97564.95
2019-01-13T21:21:20.477Z,97569.96
2019-01-13T21:23:14.335Z,97563.07
2019-01-13T21:25:10.035Z,97565.33
2019-01-13T21:27:03.847Z,97563.45
2019-01-13T21:28:57.320Z,97561.57
2019-01-13T21:30:51.690Z,97563.83
2019-01-13T21:32:47.197Z,97562.61
2019-01-13T21:34:41.375Z,97561.77
2019-01-13T21:36:35.377Z,97558.81
2019-01-13T21:38:29.198Z,97551.55
2019-01-13T21:40:23.109Z,97556.03
2019-01-13T21:42:18.394Z,97548.05
2019-01-13T21:45:55.287Z,97541.35
2019-01-13T21:49:16.878Z,97540.80
2019-01-13T21:51:09.477Z,97541.09
2019-01-13T21:53:03.417Z,97542.32
2019-01-13T21:54:57.598Z,97533.03
2019-01-13T21:56:51.877Z,97531.92
2019-01-13T21:58:45.446Z,97535.09
2019-01-13T22:00:39.387Z,97534.45
2019-01-13T22:02:32.877Z,97528.49
2019-01-13T22:04:29.731Z,97531.78
2019-01-13T22:06:23.186Z,97537.06
2019-01-13T22:08:18.947Z,97533.63
2019-01-13T22:10:15.357Z,97525.93
2019-01-13T22:12:08.526Z,97529.07
2019-01-13T22:14:05.208Z,97527.05
2019-01-13T22:15:58.328Z,97527.50
2019-01-13T22:17:51.258Z,97525.83
2019-01-13T22:19:44.097Z,97525.48
2019-01-13T22:21:37.186Z,97529.38
2019-01-13T22:23:30.828Z,97533.63